Time;durP1;ratioP1;P1;durP2;ratioP2;P2;SDS_P1;SDS_P2;PMS_P1;PMS_P2;Temp;Humidity;BMP_temperature;BMP_pressure;BME280_temperature;BME280_humidity;BME280_pressure;Samples;Min_cycle;Max_cycle;Signal;HPM_P1;HPM_P2
2023/07/12 00:00:45;;;;;;;1999.90;999.90;;;;;;;20.22;100.00;93945.97;5087132;28;20221;-53
2023/07/12 00:03:11;;;;;;;1999.90;999.90;;;;;;;20.19;100.00;93961.59;5087340;28;20199;-54
2023/07/12 00:05:36;;;;;;;1999.90;999.90;;;;;;;20.20;100.00;93968.66;5086578;28;20169;-54
2023/07/12 00:08:02;;;;;;;1999.90;999.90;;;;;;;20.19;100.00;93966.38;5086434;28;20188;-53
2023/07/12 00:10:31;;;;;;;1999.90;999.90;;;;;;;20.28;100.00;93953.03;5086465;28;20232;-54
2023/07/12 00:12:56;;;;;;;1999.90;999.90;;;;;;;20.19;100.00;93949.75;5086830;28;20238;-53
2023/07/12 00:15:29;;;;;;;1999.90;999.90;;;;;;;20.22;100.00;93955.06;5086668;28;20197;-51
2023/07/12 00:17:55;;;;;;;1999.90;999.90;;;;;;;20.24;100.00;93946.22;5086594;28;20192;-52
2023/07/12 00:20:25;;;;;;;1999.90;999.90;;;;;;;20.27;100.00;93934.91;5086349;28;20176;-54
2023/07/12 00:22:51;;;;;;;1999.90;999.90;;;;;;;20.29;100.00;93948.25;5086157;28;20177;-55
2023/07/12 00:25:18;;;;;;;1999.90;999.90;;;;;;;20.34;100.00;93930.88;5086184;28;20173;-54
2023/07/12 00:27:44;;;;;;;1999.90;999.90;;;;;;;20.37;100.00;93938.19;5086575;28;20173;-54
2023/07/12 00:30:17;;;;;;;1999.90;999.90;;;;;;;20.25;100.00;93961.63;5086635;28;20169;-51
2023/07/12 00:32:43;;;;;;;1999.90;999.90;;;;;;;20.18;100.00;93987.78;5086078;28;20173;-51
2023/07/12 00:35:14;;;;;;;1999.90;999.90;;;;;;;20.21;100.00;93986.81;5086745;28;20204;-55
2023/07/12 00:37:39;;;;;;;1999.90;999.90;;;;;;;20.18;100.00;93985.00;5086437;28;20215;-51
2023/07/12 00:40:38;;;;;;;1999.90;999.90;;;;;;;20.14;100.00;93981.72;5086203;28;20177;-53
2023/07/12 00:43:19;;;;;;;1999.90;999.90;;;;;;;20.10;100.00;93991.53;5085893;28;20176;-53
2023/07/12 00:45:49;;;;;;;1999.90;999.90;;;;;;;20.12;100.00;94006.44;5086230;28;20165;-54
2023/07/12 00:48:14;;;;;;;1999.90;999.90;;;;;;;20.17;100.00;94002.91;5086217;28;20180;-54
2023/07/12 00:50:41;;;;;;;1999.90;999.90;;;;;;;20.19;100.00;93972.69;5085843;28;20200;-54
2023/07/12 00:53:13;;;;;;;1999.90;999.90;;;;;;;20.19;100.00;93944.19;5085747;28;20209;-52
2023/07/12 00:55:58;;;;;;;1999.90;999.90;;;;;;;20.26;100.00;93922.28;5085553;28;20193;-53
2023/07/12 00:58:26;;;;;;;1999.90;999.90;;;;;;;20.26;100.00;93938.16;5085426;28;20173;-53
2023/07/12 01:00:52;;;;;;;1999.90;999.90;;;;;;;20.18;100.00;93959.31;5085967;28;20173;-54
2023/07/12 01:03:20;;;;;;;1999.90;999.90;;;;;;;20.13;100.00;93958.03;5085660;28;20245;-53
2023/07/12 01:05:46;;;;;;;1999.90;999.90;;;;;;;20.12;100.00;93962.09;5085383;28;20169;-54
2023/07/12 01:08:14;;;;;;;1999.90;999.90;;;;;;;20.08;100.00;93933.81;5085572;28;20169;-50
2023/07/12 01:10:39;;;;;;;1999.90;999.90;;;;;;;20.05;100.00;93951.44;5085228;28;20200;-52
2023/07/12 01:13:06;;;;;;;1999.90;999.90;;;;;;;20.04;100.00;93966.56;5085249;28;20169;-49
2023/07/12 01:15:33;;;;;;;1999.90;999.90;;;;;;;20.01;100.00;93978.66;5085626;28;20207;-52
2023/07/12 01:17:59;;;;;;;1999.90;999.90;;;;;;;20.05;100.00;93973.63;5085419;28;20211;-49
2023/07/12 01:20:26;;;;;;;1999.90;999.90;;;;;;;20.05;100.00;93961.75;5084981;28;20169;-51
2023/07/12 01:22:52;;;;;;;1999.90;999.90;;;;;;;20.06;100.00;93952.94;5085083;28;20240;-48
2023/07/12 01:25:18;;;;;;;1999.90;999.90;;;;;;;20.20;100.00;93963.09;5084943;28;20173;-51
2023/07/12 01:27:44;;;;;;;1999.90;999.90;;;;;;;20.31;100.00;93924.31;5085017;28;20173;-50
2023/07/12 01:30:09;;;;;;;1999.90;999.90;;;;;;;20.31;100.00;93895.81;5085099;28;20240;-50
2023/07/12 01:32:37;;;;;;;1999.90;999.90;;;;;;;20.36;100.00;93881.94;5085020;28;20196;-51
2023/07/12 01:35:03;;;;;;;1999.90;999.90;;;;;;;20.36;100.00;93848.66;5084881;28;20209;-53
2023/07/12 01:37:28;;;;;;;1999.90;999.90;;;;;;;20.22;100.00;93829.53;5085591;28;20181;-52
2023/07/12 01:39:54;;;;;;;1999.90;999.90;;;;;;;20.12;100.00;93829.00;5085182;28;20181;-51
2023/07/12 01:42:19;;;;;;;1999.90;999.90;;;;;;;20.12;100.00;93815.16;5084344;28;20197;-53
2023/07/12 01:44:44;;;;;;;1999.90;999.90;;;;;;;19.98;100.00;93799.47;5083858;28;20240;-52
2023/07/12 01:47:10;;;;;;;1999.90;999.90;;;;;;;19.92;100.00;93782.06;5084529;28;20200;-53
2023/07/12 01:49:35;;;;;;;1999.90;999.90;;;;;;;19.86;100.00;93784.09;5085015;28;20181;-53
2023/07/12 01:52:01;;;;;;;1999.90;999.90;;;;;;;19.94;100.00;93801.75;5084337;28;20248;-53
2023/07/12 01:54:26;;;;;;;1999.90;999.90;;;;;;;19.98;100.00;93779.31;5084461;28;20176;-54
2023/07/12 01:56:52;;;;;;;1999.90;999.90;;;;;;;19.94;100.00;93751.84;5084372;28;20209;-54
2023/07/12 01:59:17;;;;;;;1999.90;999.90;;;;;;;19.83;100.00;93735.22;5084600;28;20197;-54
2023/07/12 02:01:42;;;;;;;1999.90;999.90;;;;;;;19.83;100.00;93724.13;5084326;28;20249;-52
2023/07/12 02:04:08;;;;;;;1999.90;999.90;;;;;;;19.77;100.00;93723.38;5084387;28;20188;-50
2023/07/12 02:06:33;;;;;;;1999.90;999.90;;;;;;;19.65;100.00;93719.09;5084714;28;20212;-52
2023/07/12 02:08:58;;;;;;;1999.90;999.90;;;;;;;19.51;100.00;93730.41;5084736;28;20179;-53
2023/07/12 02:11:24;;;;;;;1999.90;999.90;;;;;;;19.45;100.00;93711.03;5084259;28;20173;-51
2023/07/12 02:13:49;;;;;;;1999.90;999.90;;;;;;;19.52;100.00;93707.72;5084701;28;20180;-49
2023/07/12 02:16:15;;;;;;;1999.90;999.90;;;;;;;19.51;100.00;93697.91;5084576;28;20197;-52
2023/07/12 02:18:40;;;;;;;1999.90;999.90;;;;;;;19.55;100.00;93692.88;5084244;28;20219;-54
2023/07/12 02:21:05;;;;;;;1999.90;999.90;;;;;;;19.62;100.00;93681.31;5084111;28;20180;-53
2023/07/12 02:23:31;;;;;;;1999.90;999.90;;;;;;;19.58;100.00;93653.09;5084037;28;20234;-52
2023/07/12 02:25:56;;;;;;;1999.90;999.90;;;;;;;19.60;100.00;93628.44;5083919;28;20173;-52
2023/07/12 02:28:21;;;;;;;1999.90;999.90;;;;;;;19.52;100.00;93612.84;5083972;28;20184;-52
2023/07/12 02:30:47;;;;;;;1999.90;999.90;;;;;;;19.57;100.00;93606.53;5083983;28;20184;-51
2023/07/12 02:33:13;;;;;;;1999.90;999.90;;;;;;;19.50;100.00;93605.03;5083993;28;20184;-52
2023/07/12 02:35:41;;;;;;;1999.90;999.90;;;;;;;19.53;100.00;93584.63;5084360;28;20201;-52
2023/07/12 02:38:07;;;;;;;1999.90;999.90;;;;;;;19.44;100.00;93584.88;5084356;28;20177;-53
2023/07/12 02:40:33;;;;;;;1999.90;999.90;;;;;;;19.38;100.00;93562.00;5084084;28;20176;-52
2023/07/12 02:42:58;;;;;;;1999.90;999.90;;;;;;;19.31;100.00;93551.44;5084004;28;20243;-52
2023/07/12 02:45:24;;;;;;;1999.90;999.90;;;;;;;19.34;100.00;93561.50;5083842;28;20178;-52
2023/07/12 02:47:50;;;;;;;1999.90;999.90;;;;;;;19.41;100.00;93553.41;5083723;28;20177;-50
2023/07/12 02:50:15;;;;;;;1999.90;999.90;;;;;;;19.36;100.00;93547.88;5083715;28;20181;-54
2023/07/12 02:52:41;;;;;;;1999.90;999.90;;;;;;;19.32;100.00;93536.31;5083411;28;20243;-49
2023/07/12 02:55:07;;;;;;;1999.90;999.90;;;;;;;19.30;100.00;93516.69;5084213;28;20205;-53
2023/07/12 02:57:32;;;;;;;1999.90;999.90;;;;;;;19.27;100.00;93512.16;5087018;28;20177;-54
2023/07/12 02:59:58;;;;;;;1999.90;999.90;;;;;;;19.27;100.00;93517.72;5087926;28;20193;-53
2023/07/12 03:02:23;;;;;;;1999.90;999.90;;;;;;;19.30;100.00;93517.44;5087669;28;20177;-52
2023/07/12 03:04:50;;;;;;;1999.90;999.90;;;;;;;19.35;100.00;93518.69;5087960;28;20252;-53
2023/07/12 03:07:15;;;;;;;1999.90;999.90;;;;;;;19.35;100.00;93515.94;5088185;28;20173;-51
2023/07/12 03:09:41;;;;;;;1999.90;999.90;;;;;;;19.31;100.00;93523.75;5087551;28;20184;-54
2023/07/12 03:12:06;;;;;;;1999.90;999.90;;;;;;;19.33;100.00;93519.19;5087535;28;20240;-53
2023/07/12 03:14:32;;;;;;;1999.90;999.90;;;;;;;19.34;100.00;93506.88;5087265;28;20236;-54
2023/07/12 03:16:57;;;;;;;1999.90;999.90;;;;;;;19.34;100.00;93489.50;5087381;28;20181;-54
2023/07/12 03:19:24;;;;;;;1999.90;999.90;;;;;;;19.24;100.00;93485.47;5087958;28;20174;-52
2023/07/12 03:21:50;;;;;;;1999.90;999.90;;;;;;;19.22;100.00;93487.97;5087825;28;20170;-53
2023/07/12 03:24:15;;;;;;;1999.90;999.90;;;;;;;19.24;100.00;93479.94;5087264;28;20212;-53
2023/07/12 03:26:40;;;;;;;1999.90;999.90;;;;;;;19.23;100.00;93478.44;5087561;28;20181;-53
2023/07/12 03:29:06;;;;;;;1999.90;999.90;;;;;;;19.22;100.00;93487.97;5087232;28;20173;-53
2023/07/12 03:31:32;;;;;;;1999.90;999.90;;;;;;;19.16;100.00;93474.13;5087584;28;20177;-53
2023/07/12 03:33:58;;;;;;;1999.90;999.90;;;;;;;19.07;100.00;93470.88;5087032;28;20201;-53
2023/07/12 03:36:28;;;;;;;1999.90;999.90;;;;;;;19.03;100.00;93442.72;5086662;28;20208;-53
2023/07/12 03:38:54;;;;;;;1999.90;999.90;;;;;;;19.00;100.00;93444.47;5086922;28;20176;-53
2023/07/12 03:41:23;;;;;;;1999.90;999.90;;;;;;;19.00;100.00;93432.66;5086998;28;20240;-52
2023/07/12 03:43:48;;;;;;;1999.90;999.90;;;;;;;18.95;100.00;93414.06;5087189;28;20169;-52
2023/07/12 03:46:15;;;;;;;1999.90;999.90;;;;;;;18.99;100.00;93403.47;5087127;28;20174;-49
2023/07/12 03:48:40;;;;;;;1999.90;999.90;;;;;;;18.98;100.00;93390.91;5086832;28;20173;-52
2023/07/12 03:51:08;;;;;;;1999.90;999.90;;;;;;;18.96;100.00;93382.34;5086484;28;20227;-52
2023/07/12 03:53:33;;;;;;;1999.90;999.90;;;;;;;18.89;100.00;93378.09;5087313;28;20177;-51
2023/07/12 03:56:03;;;;;;;1999.90;999.90;;;;;;;18.96;100.00;93374.06;5086560;28;20205;-52
2023/07/12 03:58:39;;;;;;;1999.90;999.90;;;;;;;18.98;100.00;93346.66;5087116;28;20176;-51
2023/07/12 04:01:08;;;;;;;1999.90;999.90;;;;;;;18.99;100.00;93342.59;5086878;28;20161;-54
2023/07/12 04:03:34;;;;;;;1999.90;999.90;;;;;;;18.96;100.00;93338.09;5087098;28;20174;-53
2023/07/12 04:06:01;;;;;;;1999.90;999.90;;;;;;;18.98;100.00;93341.09;5086430;28;20169;-52
2023/07/12 04:08:26;;;;;;;1999.90;999.90;;;;;;;19.04;100.00;93341.81;5086247;28;20180;-57
2023/07/12 04:10:56;;;;;;;1999.90;999.90;;;;;;;19.06;100.00;93340.06;5086545;28;20240;-54
2023/07/12 04:13:23;;;;;;;1999.90;999.90;;;;;;;19.11;100.00;93346.84;5086360;28;20181;-55
2023/07/12 04:15:56;;;;;;;1999.90;999.90;;;;;;;19.08;100.00;93354.16;5085872;28;20208;-55
2023/07/12 04:18:25;;;;;;;1999.90;999.90;;;;;;;19.19;100.00;93339.50;5086234;28;20232;-54
2023/07/12 04:20:55;;;;;;;1999.90;999.90;;;;;;;19.24;100.00;93341.53;5086694;28;20176;-55
2023/07/12 04:23:21;;;;;;;1999.90;999.90;;;;;;;19.34;100.00;93351.09;5086245;28;20176;-55
2023/07/12 04:25:46;;;;;;;1999.90;999.90;;;;;;;19.33;100.00;93350.31;5086101;28;20180;-53
2023/07/12 04:28:12;;;;;;;1999.90;999.90;;;;;;;19.35;100.00;93342.25;5086888;28;20181;-54
2023/07/12 04:30:37;;;;;;;1999.90;999.90;;;;;;;19.42;100.00;93346.53;5085746;28;20193;-54
2023/07/12 04:33:04;;;;;;;1999.90;999.90;;;;;;;19.35;100.00;93369.19;5085931;28;20180;-56
2023/07/12 04:35:29;;;;;;;1999.90;999.90;;;;;;;19.40;100.00;93377.47;5086230;28;20209;-56
2023/07/12 04:37:55;;;;;;;1999.90;999.90;;;;;;;19.54;100.00;93381.19;5086162;28;20188;-56
2023/07/12 04:40:20;;;;;;;1999.90;999.90;;;;;;;19.62;100.00;93390.47;5086070;28;20184;-56
2023/07/12 04:42:46;;;;;;;1999.90;999.90;;;;;;;19.59;100.00;93413.66;5085721;28;20173;-59
2023/07/12 04:45:13;;;;;;;1999.90;999.90;;;;;;;19.62;100.00;93432.03;5086447;28;20176;-56
2023/07/12 04:47:39;;;;;;;1999.90;999.90;;;;;;;19.67;100.00;93439.59;5085875;28;20270;-55
2023/07/12 04:50:07;;;;;;;1999.90;999.90;;;;;;;19.72;100.00;93449.88;5085619;28;20208;-55
2023/07/12 04:52:33;;;;;;;1999.90;999.90;;;;;;;19.69;100.00;93475.81;5085605;28;20221;-55
2023/07/12 04:54:58;;;;;;;1999.90;999.90;;;;;;;19.73;100.00;93498.47;5085854;28;20216;-55
2023/07/12 04:57:24;;;;;;;1999.90;999.90;;;;;;;19.56;100.00;93517.16;5086061;28;20173;-56
2023/07/12 04:59:50;;;;;;;1999.90;999.90;;;;;;;19.72;100.00;93523.91;5085588;28;20196;-57
2023/07/12 05:02:15;;;;;;;1999.90;999.90;;;;;;;19.84;100.00;93519.88;5085423;28;20177;-57
2023/07/12 05:04:40;;;;;;;1999.90;999.90;;;;;;;20.09;100.00;93518.75;5085601;28;20177;-56
2023/07/12 05:07:09;;;;;;;1999.90;999.90;;;;;;;20.34;100.00;93515.66;5085475;28;20191;-56
2023/07/12 05:09:35;;;;;;;1999.90;999.90;;;;;;;20.35;100.00;93557.97;5085823;28;20169;-57
2023/07/12 05:12:01;;;;;;;1999.90;999.90;;;;;;;20.48;100.00;93608.88;5085268;28;20201;-55
2023/07/12 05:14:26;;;;;;;1999.90;999.90;;;;;;;20.68;100.00;93646.63;5085161;28;20180;-56
2023/07/12 05:16:52;;;;;;;1999.90;999.90;;;;;;;20.82;100.00;93685.16;5084935;28;20280;-55
2023/07/12 05:19:17;;;;;;;1999.90;999.90;;;;;;;21.02;100.00;93723.69;5084668;28;20169;-55
2023/07/12 05:21:43;;;;;;;1999.90;999.90;;;;;;;21.32;100.00;93744.03;5084811;28;20188;-55
2023/07/12 05:24:09;;;;;;;1999.90;999.90;;;;;;;21.72;100.00;93776.69;5085440;28;20193;-51
2023/07/12 05:26:34;;;;;;;1999.90;999.90;;;;;;;22.10;100.00;93822.94;5084915;28;20173;-53
2023/07/12 05:28:59;;;;;;;1999.90;999.90;;;;;;;22.33;100.00;93884.75;5084935;28;20173;-54
2023/07/12 05:31:26;;;;;;;1999.90;999.90;;;;;;;22.56;100.00;93960.50;5084763;28;20173;-55
2023/07/12 05:33:52;;;;;;;1999.90;999.90;;;;;;;22.91;100.00;94022.53;5084511;28;20199;-52
2023/07/12 05:36:17;;;;;;;1999.90;999.90;;;;;;;23.16;100.00;94098.63;5084572;28;20228;-56
2023/07/12 05:38:43;;;;;;;1999.90;999.90;;;;;;;23.48;100.00;94149.84;5085049;28;20243;-53
2023/07/12 05:41:08;;;;;;;1999.90;999.90;;;;;;;23.88;100.00;94185.31;5084804;28;20181;-55
2023/07/12 05:43:34;;;;;;;1999.90;999.90;;;;;;;23.97;100.00;94240.81;5084718;28;20181;-56
2023/07/12 05:46:00;;;;;;;1999.90;999.90;;;;;;;23.99;100.00;94275.28;5084672;28;20206;-56
2023/07/12 05:48:26;;;;;;;1999.90;999.90;;;;;;;23.98;100.00;94284.19;5084952;28;20233;-55
2023/07/12 05:50:53;;;;;;;1999.90;999.90;;;;;;;23.78;100.00;94285.28;5084505;28;20173;-57
2023/07/12 05:53:19;;;;;;;1999.90;999.90;;;;;;;23.59;100.00;94276.00;5084014;28;20224;-56
2023/07/12 05:55:44;;;;;;;1999.90;999.90;;;;;;;23.54;100.00;94287.19;5084707;28;20216;-57
2023/07/12 05:58:10;;;;;;;1999.90;999.90;;;;;;;23.44;100.00;94283.16;5084159;28;20184;-57
2023/07/12 06:00:35;;;;;;;1999.90;999.90;;;;;;;23.41;100.00;94273.06;5084263;28;20189;-56
2023/07/12 06:03:01;;;;;;;1999.90;999.90;;;;;;;23.40;100.00;94265.97;5084458;28;20174;-56
2023/07/12 06:05:26;;;;;;;1999.90;999.90;;;;;;;23.38;100.00;94262.94;5084583;28;20169;-55
2023/07/12 06:07:52;;;;;;;1999.90;999.90;;;;;;;23.35;100.00;94275.88;5084472;28;20171;-47
2023/07/12 06:10:17;;;;;;;1999.90;999.90;;;;;;;23.25;100.00;94274.66;5084002;28;20184;-51
2023/07/12 06:12:43;;;;;;;1999.90;999.90;;;;;;;23.15;100.00;94292.88;5084301;28;20173;-53
2023/07/12 06:15:09;;;;;;;1999.90;999.90;;;;;;;23.04;100.00;94347.88;5083857;28;20204;-49
2023/07/12 06:17:34;;;;;;;1999.90;999.90;;;;;;;22.89;100.00;94381.56;5083989;28;20205;-48
2023/07/12 06:20:00;;;;;;;1999.90;999.90;;;;;;;22.75;100.00;94393.72;5084218;28;20248;-47
2023/07/12 06:22:25;;;;;;;1999.90;999.90;;;;;;;22.65;100.00;94405.63;5083585;28;20222;-52
2023/07/12 06:24:51;;;;;;;1999.90;999.90;;;;;;;22.71;100.00;94420.31;5084280;28;20193;-52
2023/07/12 06:27:17;;;;;;;1999.90;999.90;;;;;;;22.39;100.00;94459.47;5083605;28;20169;-49
2023/07/12 06:29:42;;;;;;;1999.90;999.90;;;;;;;22.22;100.00;94469.78;5083633;28;20169;-48
2023/07/12 06:32:11;;;;;;;1999.90;999.90;;;;;;;21.92;100.00;94482.56;5083938;28;20169;-47
2023/07/12 06:34:37;;;;;;;1999.90;999.90;;;;;;;21.71;100.00;94492.31;5083600;28;20169;-49
2023/07/12 06:37:02;;;;;;;1999.90;999.90;;;;;;;21.58;100.00;94491.97;5083502;28;20250;-50
2023/07/12 06:39:28;;;;;;;1999.90;999.90;;;;;;;21.51;100.00;94495.19;5083671;28;20237;-52
2023/07/12 06:41:53;;;;;;;1999.90;999.90;;;;;;;21.50;100.00;94485.34;5083285;28;20244;-48
2023/07/12 06:44:19;;;;;;;1999.90;999.90;;;;;;;21.45;100.00;94469.38;5084112;28;20187;-50
2023/07/12 06:46:45;;;;;;;1999.90;999.90;;;;;;;21.31;100.00;94467.53;5084191;28;20204;-49
2023/07/12 06:49:13;;;;;;;1999.90;999.90;;;;;;;21.20;100.00;94481.34;5084333;28;20173;-50
2023/07/12 06:51:38;;;;;;;1999.90;999.90;;;;;;;21.04;100.00;94473.66;5083990;28;20228;-47
2023/07/12 06:54:03;;;;;;;1999.90;999.90;;;;;;;20.91;100.00;94470.47;5083631;28;20169;-47
2023/07/12 06:56:29;;;;;;;1999.90;999.90;;;;;;;20.86;100.00;94467.66;5084122;28;20197;-48
2023/07/12 06:58:54;;;;;;;1999.90;999.90;;;;;;;20.78;100.00;94450.69;5083487;28;20194;-47
2023/07/12 07:01:19;;;;;;;1999.90;999.90;;;;;;;20.65;100.00;94427.38;5084134;28;20169;-47
2023/07/12 07:03:45;;;;;;;1999.90;999.90;;;;;;;20.30;100.00;94360.22;5083552;28;20200;-49
2023/07/12 07:06:10;;;;;;;1999.90;999.90;;;;;;;20.20;100.00;94306.94;5083772;28;20174;-49
2023/07/12 07:08:36;;;;;;;1999.90;999.90;;;;;;;20.14;100.00;94300.56;5084002;28;20173;-50
2023/07/12 07:11:01;;;;;;;1999.90;999.90;;;;;;;20.27;100.00;94373.06;5083403;28;20288;-47
2023/07/12 07:13:27;;;;;;;1999.90;999.90;;;;;;;20.24;100.00;94451.69;5083870;28;20169;-52
2023/07/12 07:15:52;;;;;;;1999.90;999.90;;;;;;;20.27;100.00;94450.72;5083856;28;20197;-49
2023/07/12 07:18:18;;;;;;;1999.90;999.90;;;;;;;20.16;100.00;94445.06;5083504;28;20176;-50
2023/07/12 07:20:43;;;;;;;1999.90;999.90;;;;;;;20.27;100.00;94434.06;5083356;28;20165;-47
2023/07/12 07:23:10;;;;;;;1999.90;999.90;;;;;;;20.27;100.00;94434.06;5083887;28;20203;-46
2023/07/12 07:25:36;;;;;;;1999.90;999.90;;;;;;;20.38;100.00;94436.94;5083766;28;20169;-50
2023/07/12 07:28:02;;;;;;;1999.90;999.90;;;;;;;20.54;100.00;94425.25;5083322;28;20169;-46
2023/07/12 07:30:27;;;;;;;1999.90;999.90;;;;;;;20.57;100.00;94449.22;5083502;28;20176;-50
2023/07/12 07:32:54;;;;;;;1999.90;999.90;;;;;;;20.69;100.00;94480.63;5083456;28;20165;-50
2023/07/12 07:35:20;;;;;;;1999.90;999.90;;;;;;;20.85;100.00;94472.47;5083669;28;20197;-47
2023/07/12 07:37:47;;;;;;;1999.90;999.90;;;;;;;20.86;100.00;94473.19;5083197;28;20218;-51
2023/07/12 07:40:12;;;;;;;1999.90;999.90;;;;;;;20.90;100.00;94463.41;5083376;28;20174;-50
2023/07/12 07:42:38;;;;;;;1999.90;999.90;;;;;;;20.88;100.00;94470.69;5083247;28;20176;-51
2023/07/12 07:45:03;;;;;;;1999.90;999.90;;;;;;;21.04;100.00;94476.41;5087260;28;20187;-50
2023/07/12 07:47:29;;;;;;;1999.90;999.90;;;;;;;21.20;100.00;94492.44;5086680;28;20173;-47
2023/07/12 07:49:54;;;;;;;1999.90;999.90;;;;;;;21.27;100.00;94514.22;5086669;28;20177;-50
2023/07/12 07:52:19;;;;;;;1999.90;999.90;;;;;;;21.24;100.00;94504.09;5086653;28;20216;-49
2023/07/12 07:54:45;;;;;;;1999.90;999.90;;;;;;;21.38;100.00;94486.50;5086658;28;20193;-51
2023/07/12 07:57:10;;;;;;;1999.90;999.90;;;;;;;21.40;100.00;94488.78;5086600;28;20169;-51
2023/07/12 07:59:35;;;;;;;1999.90;999.90;;;;;;;21.49;100.00;94492.13;5086525;28;20189;-51
2023/07/12 08:02:01;;;;;;;1999.90;999.90;;;;;;;21.69;100.00;94483.69;5087052;28;20347;-53
2023/07/12 08:04:27;;;;;;;1999.90;999.90;;;;;;;21.91;100.00;94486.59;5086849;28;20256;-48
2023/07/12 08:06:52;;;;;;;1999.90;999.90;;;;;;;22.14;100.00;94479.88;5086349;28;20191;-46
2023/07/12 08:09:17;;;;;;;1999.90;999.90;;;;;;;22.33;100.00;94453.13;5086437;28;20169;-50
2023/07/12 08:11:43;;;;;;;1999.90;999.90;;;;;;;22.48;100.00;94377.03;5086654;28;20173;-51
2023/07/12 08:14:09;;;;;;;1999.90;999.90;;;;;;;22.50;100.00;94322.34;5086363;28;20244;-51
2023/07/12 08:16:35;;;;;;;1999.90;999.90;;;;;;;22.58;100.00;94303.88;5086177;28;20201;-51
2023/07/12 08:19:02;;;;;;;1999.90;999.90;;;;;;;22.72;100.00;94294.50;5086754;28;20241;-52
2023/07/12 08:21:28;;;;;;;1999.90;999.90;;;;;;;22.68;100.00;94282.13;5086779;28;20196;-48
2023/07/12 08:23:54;;;;;;;1999.90;999.90;;;;;;;22.93;100.00;94264.31;5086302;28;20169;-50
2023/07/12 08:26:19;;;;;;;1999.90;999.90;;;;;;;23.14;100.00;94259.97;5086175;28;20180;-46
2023/07/12 08:28:45;;;;;;;1999.90;999.90;;;;;;;23.33;100.00;94241.41;5086240;28;20174;-48
2023/07/12 08:31:11;;;;;;;1999.90;999.90;;;;;;;23.03;100.00;94252.41;5085875;28;20165;-54
2023/07/12 08:33:36;;;;;;;1999.90;999.90;;;;;;;23.22;100.00;94244.25;5085570;28;20172;-51
2023/07/12 08:36:01;;;;;;;1999.90;999.90;;;;;;;23.53;100.00;94243.88;5085794;28;20200;-46
2023/07/12 08:38:31;;;;;;;1999.90;999.90;;;;;;;23.83;100.00;94250.28;5086510;28;20242;-49
2023/07/12 08:40:57;;;;;;;1999.90;999.90;;;;;;;24.03;100.00;94269.44;5086497;28;20168;-50
2023/07/12 08:43:29;;;;;;;1999.90;999.90;;;;;;;23.97;100.00;94299.41;5085698;28;20174;-46
2023/07/12 08:45:58;;;;;;;1999.90;999.90;;;;;;;24.25;100.00;94302.75;5085428;28;20195;-48
2023/07/12 08:48:24;;;;;;;1999.90;999.90;;;;;;;24.51;100.00;94325.44;5085245;28;20169;-46
2023/07/12 08:50:50;;;;;;;1999.90;999.90;;;;;;;25.15;100.00;94364.50;5085688;28;20184;-51
2023/07/12 08:53:23;;;;;;;1999.90;999.90;;;;;;;25.82;100.00;94405.75;5085528;28;20244;-51
2023/07/12 08:55:49;;;;;;;1999.90;999.90;;;;;;;26.36;100.00;94499.53;5085764;28;20197;-51
2023/07/12 08:58:30;;;;;;;1999.90;999.90;;;;;;;26.97;100.00;94624.91;5085502;28;20173;-48
2023/07/12 09:01:34;;;;;;;1999.90;999.90;;;;;;;27.30;100.00;94694.63;5085978;28;20177;-49
2023/07/12 09:03:59;;;;;;;1999.90;999.90;;;;;;;27.36;100.00;94804.75;5054972;28;20181;-49
2023/07/12 09:06:25;;;;;;;1999.90;999.90;;;;;;;27.97;100.00;94945.94;5085309;28;20226;-50
2023/07/12 09:08:53;;;;;;;1999.90;999.90;;;;;;;28.20;100.00;95037.13;5085270;28;20176;-51
2023/07/12 09:11:27;;;;;;;1999.90;999.90;;;;;;;28.47;100.00;95077.47;5085006;28;20169;-51
2023/07/12 09:13:56;;;;;;;1999.90;999.90;;;;;;;28.70;100.00;95090.00;5085176;28;20185;-51
2023/07/12 09:16:32;;;;;;;1999.90;999.90;;;;;;;28.85;100.00;95084.69;5085158;28;20207;-52
2023/07/12 09:19:18;;;;;;;1999.90;999.90;;;;;;;28.88;100.00;95097.66;5085090;28;20172;-50
2023/07/12 09:21:47;;;;;;;1999.90;999.90;;;;;;;29.17;100.00;95099.63;5084569;28;20227;-51
2023/07/12 09:24:19;;;;;;;1999.90;999.90;;;;;;;29.66;100.00;95108.66;5085521;28;20169;-53
2023/07/12 09:26:45;;;;;;;1999.90;999.90;;;;;;;30.36;100.00;95108.03;5085486;28;20165;-51
2023/07/12 09:29:22;;;;;;;1999.90;999.90;;;;;;;30.04;100.00;95101.66;5085054;28;20238;-51
2023/07/12 09:31:49;;;;;;;1999.90;999.90;;;;;;;30.86;100.00;95105.81;5085366;28;20169;-53
2023/07/12 09:34:27;;;;;;;1999.90;999.90;;;;;;;30.92;100.00;95122.63;5084735;28;20169;-49
2023/07/12 09:36:58;;;;;;;1999.90;999.90;;;;;;;30.32;100.00;95122.44;5085108;28;20193;-52
2023/07/12 09:39:25;;;;;;;1999.90;999.90;;;;;;;30.50;100.00;95115.19;5085144;28;20172;-52
2023/07/12 09:41:55;;;;;;;1999.90;999.90;;;;;;;30.46;100.00;95109.13;5085274;28;20210;-53
2023/07/12 09:44:21;;;;;;;1999.90;999.90;;;;;;;30.89;100.00;95107.53;5085163;28;20188;-52
2023/07/12 09:47:01;;;;;;;1999.90;999.90;;;;;;;31.36;100.00;95107.59;5084651;28;20197;-51
2023/07/12 09:49:39;;;;;;;1999.90;999.90;;;;;;;31.73;100.00;95098.78;5085347;28;20157;-50
2023/07/12 09:52:31;;;;;;;1999.90;999.90;;;;;;;32.36;100.00;95103.16;5084522;28;20209;-53
2023/07/12 09:55:11;;;;;;;1999.90;999.90;;;;;;;32.63;100.00;95116.56;5085065;28;20161;-52
2023/07/12 09:57:57;;;;;;;1999.90;999.90;;;;;;;33.24;100.00;95112.81;5084851;28;20169;-52
2023/07/12 10:00:54;;;;;;;1999.90;999.90;;;;;;;33.74;100.00;95125.47;5084634;28;20189;-51
2023/07/12 10:03:26;;;;;;;1999.90;999.90;;;;;;;32.86;100.00;95122.41;5084453;28;20165;-52
2023/07/12 10:05:58;;;;;;;1999.90;999.90;;;;;;;33.53;100.00;95134.09;5083527;28;20181;-53
2023/07/12 10:08:26;;;;;;;1999.90;999.90;;;;;;;33.51;100.00;95131.06;5084721;28;20244;-51
2023/07/12 10:11:10;;;;;;;1999.90;999.90;;;;;;;33.65;100.00;95129.59;5084192;28;20176;-52
2023/07/12 10:13:41;;;;;;;1999.90;999.90;;;;;;;33.60;100.00;95127.72;5084446;28;20158;-48
2023/07/12 10:16:17;;;;;;;1999.90;999.90;;;;;;;33.57;98.36;95128.81;5084443;28;20196;-51
2023/07/12 10:18:43;;;;;;;1999.90;999.90;;;;;;;33.56;100.00;95130.16;5083602;28;20168;-52
2023/07/12 10:21:16;;;;;;;1999.90;999.90;;;;;;;33.88;94.25;95129.72;5083875;28;20192;-52
2023/07/12 10:24:13;;;;;;;1999.90;999.90;;;;;;;34.95;93.65;95126.38;5084402;28;20162;-51
2023/07/12 10:26:39;;;;;;;1999.90;999.90;;;;;;;35.05;90.12;95135.81;5068393;28;20192;-51
2023/07/12 10:29:19;;;;;;;1999.90;999.90;;;;;;;35.29;86.84;95126.66;5083720;28;20232;-51
2023/07/12 10:31:58;;;;;;;1999.90;999.90;;;;;;;35.42;84.08;95137.81;5084277;28;20168;-51
2023/07/12 10:34:27;;;;;;;1999.90;999.90;;;;;;;35.31;81.59;95138.22;5084230;28;20214;-50
2023/07/12 10:36:55;;;;;;;1999.90;999.90;;;;;;;35.14;84.63;95138.06;5084260;28;20197;-51
2023/07/12 10:39:26;;;;;;;1999.90;999.90;;;;;;;34.86;84.93;95135.47;5084354;28;20204;-51
2023/07/12 10:41:59;;;;;;;1999.90;999.90;;;;;;;35.12;84.97;95138.66;5084380;28;20164;-52
2023/07/12 10:44:43;;;;;;;1999.90;999.90;;;;;;;34.78;85.03;95132.63;5084266;28;20173;-49
2023/07/12 10:47:15;;;;;;;1999.90;999.90;;;;;;;35.56;82.52;95137.00;5084318;28;20240;-52
2023/07/12 10:49:43;;;;;;;1999.90;999.90;;;;;;;35.46;82.12;95141.00;5084347;28;20165;-51